Masset, Canada
Current Conditions -  °F | °C
As of 6:00 PM on Monday 22 Dec 2014 (Local Time) from CZMT Reporting Station
Overcast Overcast  
Wind Chill: 39°   Ceiling: 3000
Heat Index: 43°   Visibility: 15mi
Dew Point: 39°   Wind: 7mph
Humidity: 87%   Direction: 140°SE
Pressure: 30.07"   Gusts: NA
Location:  54.02°N, 132.15°W
Report Text: CZMT 230200Z 14006KT 15SM SCT015 BKN030 OVC090 06/04 A3007 RMK SC4SC3AC1 LAST OBS/NEXT 231500 UTC PRESFR SLP181
Loading
Personal Weather Stations






























Interactive Weather Map New forecast layout! Learn more

10-Day Weather Forecast

Advertisements
Track Severe Weather on mobile